Terminal Aerodrome Forecast
Issued by NWS Sioux Falls, SD

Home | Current Version | Previous Version | Graphics & Text | Print | Product List | Glossary On
Versions: 1 2 3 4 5 6 7 8 9 10 11 12 13 14 15 16 17 18 19
000
FTUS43 KFSD 201700 RRA
TAFFSD
TAF
KFSD 201743Z 2018/2118 14010KT P6SM SCT100 BKN150
     FM202100 15013KT P6SM SCT050 BKN120
      TEMPO 2022/2101 6SM TSRA BKN045CB
     FM210100 14010KT P6SM SCT040 BKN120
      TEMPO 2105/2107 3SM TSRA BKN040CB
     FM210900 16005KT 4SM BR BKN010
     FM211500 17006KT P6SM SCT015=

USA.gov is the U.S. government's official web portal to all federal, state and local government web resources and services.